Terminal Aerodrome Forecast
Issued by NWS Cleveland, OH

Home | Current Version | Previous Version | Graphics & Text | Print | Product List | Glossary On
Versions: 1 2 3 4 5 6 7 8 9 10 11 12 13 14 15 16 17 18 19 20 21 22 23 24 25 26 27 28 29
000
FTUS41 KCLE 180500
TAFYNG
TAF
KYNG 180520Z 1806/1906 27010KT 6SM -SHSN OVC025
      TEMPO 1807/1810 4SM -SHSN OVC018
     FM181500 27008KT P6SM OVC025
     FM182200 27008KT P6SM OVC035
     FM190400 27005KT P6SM OVC025=

USA.gov is the U.S. government's official web portal to all federal, state and local government web resources and services.